createdAt,value
2023-07-23T00:01:10.900Z,3.90
2023-07-23T00:03:37.932Z,5.05
2023-07-23T00:06:06.231Z,9.57
2023-07-23T00:08:33.272Z,7.65
2023-07-23T00:11:00.241Z,6.05
2023-07-23T00:13:27.379Z,6.95
2023-07-23T00:15:54.654Z,6.50
2023-07-23T00:18:21.641Z,3.38
2023-07-23T00:20:48.778Z,3.05
2023-07-23T00:23:15.946Z,5.53
2023-07-23T00:25:43.531Z,3.75
2023-07-23T00:28:10.555Z,3.47
2023-07-23T00:30:37.704Z,4.28
2023-07-23T00:33:04.699Z,3.80
2023-07-23T00:35:31.740Z,8.00
2023-07-23T00:37:58.982Z,3.75
2023-07-23T00:40:26.022Z,4.50
2023-07-23T00:42:53.175Z,4.90
2023-07-23T00:45:21.112Z,4.13
2023-07-23T00:47:48.220Z,3.63
2023-07-23T00:50:16.428Z,5.05
2023-07-23T00:52:44.370Z,3.72
2023-07-23T00:55:11.388Z,5.28
2023-07-23T00:57:38.455Z,2.65
2023-07-23T01:02:59.609Z,3.30
2023-07-23T01:05:27.396Z,6.63
2023-07-23T01:07:55.076Z,4.28
2023-07-23T01:10:22.548Z,5.43
2023-07-23T01:12:50.662Z,3.78
2023-07-23T01:15:17.772Z,4.40
2023-07-23T01:17:45.816Z,3.08
2023-07-23T01:20:13.892Z,5.35
2023-07-23T01:22:40.819Z,4.50
2023-07-23T01:25:08.181Z,4.47
2023-07-23T01:27:35.465Z,4.55
2023-07-23T01:30:02.699Z,4.18
2023-07-23T01:32:29.646Z,4.95
2023-07-23T01:35:07.484Z,4.22
2023-07-23T01:37:34.374Z,5.50
2023-07-23T01:40:01.570Z,6.55
2023-07-23T01:42:28.812Z,6.63
2023-07-23T01:44:55.785Z,7.05
2023-07-23T01:47:24.177Z,10.50
2023-07-23T01:49:51.818Z,7.72
2023-07-23T01:52:18.691Z,6.45
2023-07-23T01:54:45.555Z,7.68
2023-07-23T01:57:12.383Z,5.72
2023-07-23T01:59:39.692Z,6.18
2023-07-23T02:02:10.582Z,7.22
2023-07-23T02:04:37.613Z,6.03
2023-07-23T02:07:04.866Z,4.47
2023-07-23T02:09:31.967Z,7.43
2023-07-23T02:11:58.899Z,3.30
2023-07-23T02:14:25.906Z,5.38
2023-07-23T02:16:52.723Z,3.78
2023-07-23T02:19:19.812Z,5.18
2023-07-23T02:21:46.805Z,6.20
2023-07-23T02:24:13.810Z,8.20
2023-07-23T02:26:40.695Z,5.47
2023-07-23T02:29:07.688Z,3.95
2023-07-23T02:31:34.558Z,4.47
2023-07-23T02:34:01.387Z,5.85
2023-07-23T02:36:28.341Z,6.88
2023-07-23T02:38:55.377Z,4.70
2023-07-23T02:41:22.343Z,5.10
2023-07-23T02:43:49.310Z,5.63
2023-07-23T02:46:16.349Z,6.25
2023-07-23T02:48:43.316Z,4.00
2023-07-23T02:51:10.219Z,6.95
2023-07-23T02:53:37.144Z,4.00
2023-07-23T02:56:04.136Z,4.22
2023-07-23T02:58:31.092Z,4.47
2023-07-23T03:00:58.231Z,5.15
2023-07-23T03:03:26.108Z,8.63
2023-07-23T03:05:53.144Z,7.40
2023-07-23T03:08:20.191Z,17.98
2023-07-23T03:10:47.090Z,4.15
2023-07-23T03:13:14.250Z,4.38
2023-07-23T03:15:41.052Z,5.43
2023-07-23T03:18:07.966Z,4.68
2023-07-23T03:20:35.002Z,5.45
2023-07-23T03:23:01.907Z,6.53
2023-07-23T03:25:28.733Z,6.28
2023-07-23T03:27:57.958Z,6.35
2023-07-23T03:30:24.785Z,4.47
2023-07-23T03:32:51.756Z,4.43
2023-07-23T03:35:18.708Z,6.18
2023-07-23T03:37:45.789Z,5.35
2023-07-23T03:40:12.996Z,8.20
2023-07-23T03:42:39.880Z,6.63
2023-07-23T03:45:07.458Z,7.70
2023-07-23T03:47:34.403Z,7.55
2023-07-23T03:50:01.492Z,8.73
2023-07-23T03:52:28.501Z,9.27
2023-07-23T03:54:55.393Z,10.77
2023-07-23T03:57:22.337Z,11.95
2023-07-23T03:59:49.219Z,11.00
2023-07-23T04:14:59.529Z,9.57
2023-07-23T04:17:26.479Z,13.13
2023-07-23T04:19:53.408Z,15.00
2023-07-23T04:22:20.913Z,13.35
2023-07-23T04:24:48.260Z,19.48
2023-07-23T04:27:16.061Z,15.68
2023-07-23T04:29:43.247Z,17.83
2023-07-23T04:32:10.101Z,13.55
2023-07-23T04:34:37.435Z,15.00
2023-07-23T04:37:05.064Z,11.50
2023-07-23T04:39:31.981Z,13.30
2023-07-23T04:41:59.193Z,16.15
2023-07-23T04:44:26.504Z,16.23
2023-07-23T04:46:53.339Z,11.25
2023-07-23T04:49:20.244Z,13.60
2023-07-23T04:51:47.252Z,16.38
2023-07-23T04:54:14.295Z,17.85
2023-07-23T04:56:41.355Z,17.60
2023-07-23T04:59:08.895Z,13.43
2023-07-23T05:01:36.142Z,21.50
2023-07-23T05:04:03.504Z,19.17
2023-07-23T05:06:30.572Z,16.70
2023-07-23T05:08:57.762Z,17.52
2023-07-23T05:11:25.035Z,15.38
2023-07-23T05:13:52.181Z,14.73
2023-07-23T05:16:19.171Z,17.60
2023-07-23T05:18:46.525Z,17.45
2023-07-23T05:21:13.643Z,17.77
2023-07-23T05:23:40.554Z,18.95
2023-07-23T05:26:07.478Z,18.52
2023-07-23T05:28:35.013Z,17.77
2023-07-23T05:31:02.022Z,20.75
2023-07-23T05:33:29.233Z,16.98
2023-07-23T05:35:56.433Z,22.33
2023-07-23T05:38:23.411Z,20.77
2023-07-23T05:40:58.126Z,19.88
2023-07-23T05:43:27.970Z,19.90
2023-07-23T05:45:56.682Z,22.38
2023-07-23T05:48:23.743Z,19.67
2023-07-23T05:50:50.854Z,20.10
2023-07-23T05:53:17.807Z,21.50
2023-07-23T05:55:44.623Z,20.50
2023-07-23T05:58:11.573Z,18.58
2023-07-23T06:00:38.465Z,20.95
2023-07-23T06:03:05.467Z,22.15
2023-07-23T06:05:32.442Z,19.25
2023-07-23T06:07:59.289Z,17.83
2023-07-23T06:10:26.162Z,20.27
2023-07-23T06:12:53.228Z,20.38
2023-07-23T06:15:21.779Z,17.38
2023-07-23T06:17:48.850Z,19.65
2023-07-23T06:20:15.864Z,22.08
2023-07-23T06:22:43.347Z,17.33
2023-07-23T06:25:10.639Z,22.17
2023-07-23T06:27:37.704Z,17.67
2023-07-23T06:30:04.861Z,17.25
2023-07-23T06:32:31.792Z,15.60
2023-07-23T06:34:58.772Z,16.13
2023-07-23T06:37:25.665Z,20.15
2023-07-23T06:39:52.553Z,15.15
2023-07-23T06:42:19.437Z,15.07
2023-07-23T06:44:46.348Z,17.42
2023-07-23T06:47:15.070Z,16.17
2023-07-23T06:49:41.965Z,17.33
2023-07-23T06:52:09.550Z,16.27
2023-07-23T06:54:40.031Z,16.83
2023-07-23T06:57:07.183Z,15.82
2023-07-23T06:59:34.236Z,17.27
2023-07-23T07:02:01.154Z,19.58
2023-07-23T07:04:30.411Z,17.05
2023-07-23T07:06:57.563Z,15.60
2023-07-23T07:09:24.956Z,14.98
2023-07-23T07:11:53.309Z,14.73
2023-07-23T07:14:20.206Z,15.52
2023-07-23T07:16:47.342Z,15.43
2023-07-23T07:19:14.989Z,20.80
2023-07-23T07:21:41.929Z,17.42
2023-07-23T07:24:09.003Z,15.40
2023-07-23T07:26:36.059Z,17.25
2023-07-23T07:29:04.063Z,16.23
2023-07-23T07:31:31.332Z,16.98
2023-07-23T07:33:59.432Z,15.50
2023-07-23T07:36:26.282Z,12.90
2023-07-23T07:38:53.091Z,14.52
2023-07-23T07:41:19.991Z,15.95
2023-07-23T07:43:47.038Z,13.23
2023-07-23T07:46:13.930Z,12.05
2023-07-23T07:48:40.804Z,15.95
2023-07-23T07:51:08.310Z,15.35
2023-07-23T07:53:36.651Z,15.60
2023-07-23T07:56:04.751Z,14.38
2023-07-23T07:58:32.130Z,14.38
2023-07-23T08:01:00.743Z,13.80
2023-07-23T08:03:31.065Z,15.05
2023-07-23T08:05:59.647Z,13.15
2023-07-23T08:08:29.314Z,12.57
2023-07-23T08:10:58.243Z,12.57
2023-07-23T08:13:26.031Z,11.90
2023-07-23T08:15:55.775Z,13.90
2023-07-23T08:18:23.845Z,11.63
2023-07-23T08:20:50.870Z,11.05
2023-07-23T08:23:18.019Z,11.13
2023-07-23T08:25:50.658Z,12.15
2023-07-23T08:28:26.762Z,10.00
2023-07-23T08:30:55.741Z,11.00
2023-07-23T08:33:26.594Z,12.57
2023-07-23T08:35:53.786Z,13.25
2023-07-23T08:38:20.953Z,15.77
2023-07-23T08:40:50.924Z,15.32
2023-07-23T08:43:46.665Z,11.77
2023-07-23T08:46:26.392Z,12.63
2023-07-23T08:48:55.984Z,10.60
2023-07-23T08:51:28.383Z,12.98
2023-07-23T08:53:58.067Z,12.18
2023-07-23T08:56:25.450Z,10.90
2023-07-23T08:58:53.846Z,11.27
2023-07-23T09:01:20.828Z,12.50
2023-07-23T09:03:48.387Z,10.52
2023-07-23T09:06:16.287Z,10.23
2023-07-23T09:08:43.137Z,10.73
2023-07-23T09:11:11.904Z,9.38
2023-07-23T09:13:39.163Z,10.32
2023-07-23T09:16:06.589Z,11.27
2023-07-23T09:18:39.600Z,11.25
2023-07-23T09:21:07.636Z,13.23
2023-07-23T09:23:36.634Z,11.75
2023-07-23T09:26:03.584Z,10.75
2023-07-23T09:28:30.572Z,10.55
2023-07-23T09:31:00.245Z,9.52
2023-07-23T09:33:37.942Z,10.40
2023-07-23T09:36:06.858Z,9.52
2023-07-23T09:38:35.161Z,11.68
2023-07-23T09:41:02.221Z,9.40
2023-07-23T09:43:29.607Z,10.70
2023-07-23T09:45:56.815Z,15.07
2023-07-23T09:48:24.711Z,10.02
2023-07-23T09:50:57.445Z,9.88
2023-07-23T09:53:24.365Z,12.65
2023-07-23T09:55:51.992Z,9.70
2023-07-23T09:58:21.865Z,9.85
2023-07-23T10:00:51.176Z,11.52
2023-07-23T10:03:18.979Z,9.50
2023-07-23T10:05:46.910Z,9.07
2023-07-23T10:08:15.601Z,13.48
2023-07-23T10:10:43.097Z,10.52
2023-07-23T10:13:10.031Z,9.43
2023-07-23T10:15:39.869Z,9.48
2023-07-23T10:18:08.325Z,9.35
2023-07-23T10:20:35.658Z,10.38
2023-07-23T10:23:06.745Z,9.48
2023-07-23T10:25:40.499Z,9.77
2023-07-23T10:28:11.758Z,12.38
2023-07-23T10:30:39.077Z,9.85
2023-07-23T10:33:26.334Z,9.30
2023-07-23T10:35:53.294Z,10.50
2023-07-23T10:38:25.237Z,10.30
2023-07-23T10:40:52.450Z,10.52
2023-07-23T10:43:19.663Z,10.85
2023-07-23T10:45:52.838Z,12.60
2023-07-23T10:48:19.990Z,11.55
2023-07-23T10:51:11.838Z,22.90
2023-07-23T10:54:04.199Z,9.93
2023-07-23T10:56:40.592Z,12.63
2023-07-23T10:59:22.979Z,13.43
2023-07-23T11:01:53.019Z,13.23
2023-07-23T11:04:26.649Z,14.00
2023-07-23T11:07:01.950Z,12.68
2023-07-23T11:09:32.689Z,15.65
2023-07-23T11:12:01.067Z,13.43
2023-07-23T11:14:29.690Z,11.65
2023-07-23T11:17:02.616Z,12.63
2023-07-23T11:19:31.094Z,11.70
2023-07-23T11:22:00.621Z,16.02
2023-07-23T11:24:29.921Z,12.43
2023-07-23T11:27:04.064Z,11.25
2023-07-23T11:29:35.003Z,11.55
2023-07-23T11:32:03.788Z,10.82
2023-07-23T11:34:35.854Z,9.88
2023-07-23T11:37:04.062Z,10.52
2023-07-23T11:39:30.971Z,13.38
2023-07-23T11:41:57.942Z,14.65
2023-07-23T11:44:24.956Z,11.18
2023-07-23T11:47:02.991Z,13.00
2023-07-23T11:49:30.265Z,12.88
2023-07-23T11:51:59.944Z,12.55
2023-07-23T11:54:26.875Z,10.90
2023-07-23T11:56:53.710Z,10.85
2023-07-23T11:59:20.612Z,11.30
2023-07-23T12:04:39.382Z,17.60
2023-07-23T12:07:10.270Z,14.75
2023-07-23T12:09:37.203Z,12.73
2023-07-23T12:12:04.522Z,12.00
2023-07-23T12:14:31.507Z,13.35
2023-07-23T12:16:58.871Z,12.50
2023-07-23T12:19:25.834Z,11.38
2023-07-23T12:21:55.154Z,13.70
2023-07-23T12:24:30.224Z,12.27
2023-07-23T12:26:58.862Z,11.20
2023-07-23T12:29:27.649Z,12.90
2023-07-23T12:32:15.079Z,10.90
2023-07-23T12:34:49.083Z,13.45
2023-07-23T12:37:17.655Z,12.57
2023-07-23T12:39:48.190Z,12.57
2023-07-23T12:42:15.700Z,15.95
2023-07-23T12:44:42.786Z,12.70
2023-07-23T12:47:09.962Z,13.15
2023-07-23T12:49:36.858Z,13.05
2023-07-23T12:52:04.730Z,13.38
2023-07-23T12:54:31.797Z,15.73
2023-07-23T12:56:58.931Z,11.50
2023-07-23T12:59:26.436Z,11.90
2023-07-23T13:01:53.503Z,13.65
2023-07-23T13:04:20.647Z,11.65
2023-07-23T13:06:49.885Z,11.40
2023-07-23T13:09:18.251Z,11.20
2023-07-23T13:11:45.288Z,12.00
2023-07-23T13:14:12.198Z,11.70
2023-07-23T13:16:39.312Z,13.23
2023-07-23T13:19:06.185Z,11.43
2023-07-23T13:21:33.402Z,12.82
2023-07-23T13:24:00.282Z,11.35
2023-07-23T13:26:27.509Z,14.02
2023-07-23T13:28:54.777Z,13.68
2023-07-23T13:31:21.807Z,11.10
2023-07-23T13:33:48.722Z,13.85
2023-07-23T13:36:16.485Z,11.80
2023-07-23T13:38:43.406Z,11.43
2023-07-23T13:41:10.390Z,11.38
2023-07-23T13:43:37.443Z,12.55
2023-07-23T13:46:04.274Z,10.13
2023-07-23T13:48:31.343Z,11.18
2023-07-23T13:50:58.321Z,12.75
2023-07-23T13:53:25.176Z,12.25
2023-07-23T13:55:52.671Z,11.60
2023-07-23T13:58:19.756Z,10.55
2023-07-23T14:00:46.933Z,10.40
2023-07-23T14:03:14.193Z,10.82
2023-07-23T14:05:41.219Z,12.10
2023-07-23T14:08:08.120Z,12.18
2023-07-23T14:10:36.651Z,12.70
2023-07-23T14:13:04.187Z,12.40
2023-07-23T14:15:31.301Z,15.20
2023-07-23T14:18:00.976Z,13.43
2023-07-23T14:20:28.418Z,13.25
2023-07-23T14:22:55.757Z,13.15
2023-07-23T14:25:23.455Z,12.82
2023-07-23T14:27:50.923Z,13.35
2023-07-23T14:30:21.497Z,12.73
2023-07-23T14:32:48.528Z,11.68
2023-07-23T14:35:15.759Z,12.38
2023-07-23T14:37:42.648Z,12.70
2023-07-23T14:40:10.241Z,14.02
2023-07-23T14:42:37.224Z,12.43
2023-07-23T14:45:06.798Z,21.10
2023-07-23T14:47:33.734Z,16.80
2023-07-23T14:50:00.813Z,13.65
2023-07-23T14:52:27.734Z,13.23
2023-07-23T14:54:54.683Z,14.57
2023-07-23T14:57:21.584Z,14.15
2023-07-23T14:59:48.425Z,11.55
2023-07-23T15:02:15.367Z,11.88
2023-07-23T15:04:42.461Z,17.13
2023-07-23T15:07:09.795Z,16.00
2023-07-23T15:09:36.623Z,14.40
2023-07-23T15:12:03.908Z,14.20
2023-07-23T15:14:31.174Z,13.70
2023-07-23T15:16:58.520Z,12.90
2023-07-23T15:19:25.773Z,13.40
2023-07-23T15:21:52.988Z,13.05
2023-07-23T15:24:20.197Z,14.85
2023-07-23T15:26:48.906Z,16.63
2023-07-23T15:29:16.816Z,16.90
2023-07-23T15:31:43.802Z,16.80
2023-07-23T15:34:10.752Z,15.95
2023-07-23T15:36:37.599Z,14.48
2023-07-23T15:39:04.484Z,13.18
2023-07-23T15:41:31.726Z,14.35
2023-07-23T15:43:58.727Z,14.05
2023-07-23T15:46:25.893Z,13.15
2023-07-23T15:48:52.945Z,13.27
2023-07-23T15:51:19.993Z,15.43
2023-07-23T15:53:46.845Z,16.90
2023-07-23T15:56:13.769Z,13.73
2023-07-23T15:58:40.760Z,13.63
2023-07-23T16:01:07.655Z,13.80
2023-07-23T16:03:35.362Z,15.95
2023-07-23T16:06:02.434Z,13.38
2023-07-23T16:08:29.444Z,15.15
2023-07-23T16:10:56.486Z,14.43
2023-07-23T16:13:23.541Z,14.82
2023-07-23T16:15:51.234Z,15.75
2023-07-23T16:18:18.181Z,15.25
2023-07-23T16:20:45.552Z,14.05
2023-07-23T16:23:12.545Z,15.05
2023-07-23T16:25:44.562Z,17.00
2023-07-23T16:28:15.680Z,20.67
2023-07-23T16:30:42.834Z,14.15
2023-07-23T16:33:10.384Z,14.48
2023-07-23T16:35:38.202Z,14.00
2023-07-23T16:38:12.895Z,13.60
2023-07-23T16:40:47.584Z,14.70
2023-07-23T16:43:19.491Z,14.68
2023-07-23T16:45:49.851Z,14.38
2023-07-23T16:48:16.878Z,14.07
2023-07-23T16:50:43.890Z,13.15
2023-07-23T16:53:12.263Z,26.75
2023-07-23T16:55:39.264Z,15.13
2023-07-23T16:58:07.749Z,13.45
2023-07-23T17:00:34.580Z,18.60
2023-07-23T17:03:01.552Z,16.65
2023-07-23T17:05:28.758Z,14.02
2023-07-23T17:07:55.639Z,14.52
2023-07-23T17:10:22.640Z,13.57
2023-07-23T17:12:49.530Z,14.48
2023-07-23T17:15:16.438Z,14.38
2023-07-23T17:17:43.390Z,15.05
2023-07-23T17:20:10.647Z,14.40
2023-07-23T17:22:37.512Z,12.65
2023-07-23T17:25:04.750Z,13.15
2023-07-23T17:27:31.701Z,15.23
2023-07-23T17:29:58.559Z,13.38
2023-07-23T17:32:26.311Z,12.57
2023-07-23T17:34:53.728Z,13.45
2023-07-23T17:37:20.969Z,12.65
2023-07-23T17:39:47.892Z,16.35
2023-07-23T17:42:14.980Z,14.48
2023-07-23T17:44:41.924Z,13.73
2023-07-23T17:47:09.273Z,12.70
2023-07-23T17:49:36.310Z,13.75
2023-07-23T17:52:03.404Z,22.67
2023-07-23T17:54:31.263Z,18.38
2023-07-23T17:57:01.537Z,15.85
2023-07-23T17:59:28.561Z,18.00
2023-07-23T18:01:56.040Z,13.20
2023-07-23T18:04:23.125Z,16.77
2023-07-23T18:06:49.973Z,20.40
2023-07-23T18:09:17.580Z,19.52
2023-07-23T18:11:44.544Z,19.70
2023-07-23T18:14:11.634Z,16.90
2023-07-23T18:16:38.704Z,18.15
2023-07-23T18:19:05.872Z,21.35
2023-07-23T18:21:32.884Z,37.85
2023-07-23T18:23:59.782Z,24.00
2023-07-23T18:26:27.151Z,35.67
2023-07-23T18:28:54.888Z,40.13
2023-07-23T18:31:32.996Z,35.20
2023-07-23T18:34:01.980Z,23.67
2023-07-23T18:36:29.220Z,27.90
2023-07-23T18:38:56.349Z,22.70
2023-07-23T18:41:30.461Z,26.10
2023-07-23T18:43:57.507Z,29.75
2023-07-23T18:46:24.848Z,29.70
2023-07-23T18:48:53.346Z,25.63
2023-07-23T18:51:21.196Z,167.43
2023-07-23T18:53:48.450Z,91.28
2023-07-23T18:56:15.808Z,125.38
2023-07-23T18:58:43.019Z,54.70
2023-07-23T19:01:10.003Z,129.38
2023-07-23T19:03:39.143Z,50.97
2023-07-23T19:06:12.871Z,61.80
2023-07-23T19:08:40.522Z,25.95
2023-07-23T19:11:08.068Z,72.53
2023-07-23T19:13:34.984Z,78.60
2023-07-23T19:16:02.172Z,50.40
2023-07-23T19:18:29.240Z,86.45
2023-07-23T19:20:56.416Z,64.13
2023-07-23T19:23:23.415Z,48.50
2023-07-23T19:25:50.555Z,34.72
2023-07-23T19:28:17.421Z,33.95
2023-07-23T19:30:45.305Z,34.70
2023-07-23T19:33:12.359Z,34.83
2023-07-23T19:35:39.430Z,29.55
2023-07-23T19:38:07.149Z,24.98
2023-07-23T19:40:34.085Z,23.52
2023-07-23T19:43:01.185Z,28.15
2023-07-23T19:45:28.371Z,23.80
2023-07-23T19:47:55.590Z,32.83
2023-07-23T19:50:23.436Z,29.63
2023-07-23T19:52:50.529Z,30.80
2023-07-23T19:55:17.999Z,25.08
2023-07-23T19:57:44.885Z,26.10
2023-07-23T20:04:32.628Z,25.67
2023-07-23T20:06:59.760Z,27.90
2023-07-23T20:09:26.610Z,24.27
2023-07-23T20:11:53.838Z,29.30
2023-07-23T20:14:20.716Z,26.92
2023-07-23T20:16:48.081Z,26.05
2023-07-23T20:19:15.107Z,25.15
2023-07-23T20:21:44.897Z,28.02
2023-07-23T20:24:16.199Z,31.70
2023-07-23T20:26:43.729Z,30.52
2023-07-23T20:29:10.955Z,30.30
2023-07-23T20:31:38.209Z,26.50
2023-07-23T20:34:06.348Z,27.65
2023-07-23T20:36:34.236Z,30.27
2023-07-23T20:39:03.768Z,26.80
2023-07-23T20:41:32.090Z,31.90
2023-07-23T20:43:59.209Z,27.55
2023-07-23T20:46:30.816Z,29.15
2023-07-23T20:48:58.077Z,26.92
2023-07-23T20:51:25.280Z,25.73
2023-07-23T20:53:52.131Z,28.98
2023-07-23T20:56:19.744Z,30.17
2023-07-23T20:58:46.618Z,27.60
2023-07-23T21:01:13.690Z,28.00
2023-07-23T21:03:40.706Z,32.97
2023-07-23T21:06:07.795Z,27.58
2023-07-23T21:08:34.662Z,27.05
2023-07-23T21:11:01.610Z,24.42
2023-07-23T21:13:28.730Z,27.90
2023-07-23T21:15:59.512Z,28.90
2023-07-23T21:18:26.556Z,25.42
2023-07-23T21:20:53.683Z,31.30
2023-07-23T21:23:20.691Z,24.92
2023-07-23T21:25:47.730Z,24.67
2023-07-23T21:28:14.776Z,26.58
2023-07-23T21:30:45.018Z,27.38
2023-07-23T21:33:12.366Z,26.02
2023-07-23T21:35:41.482Z,26.77
2023-07-23T21:38:10.292Z,23.33
2023-07-23T21:40:37.773Z,26.00
2023-07-23T21:43:04.838Z,25.70
2023-07-23T21:45:31.844Z,27.58
2023-07-23T21:48:00.658Z,27.48
2023-07-23T21:50:27.632Z,25.70
2023-07-23T21:52:55.385Z,24.63
2023-07-23T21:55:22.422Z,25.23
2023-07-23T21:57:49.432Z,27.55
2023-07-23T22:00:16.375Z,24.45
2023-07-23T22:02:43.517Z,25.20
2023-07-23T22:05:11.120Z,29.25
2023-07-23T22:07:38.570Z,30.83
2023-07-23T22:10:08.247Z,28.55
2023-07-23T22:12:36.009Z,25.80
2023-07-23T22:15:03.567Z,24.80
2023-07-23T22:17:30.932Z,25.42
2023-07-23T22:19:58.030Z,23.77
2023-07-23T22:22:25.030Z,26.30
2023-07-23T22:24:51.985Z,26.80
2023-07-23T22:27:18.974Z,29.40
2023-07-23T22:29:45.859Z,24.52
2023-07-23T22:32:13.072Z,22.85
2023-07-23T22:34:40.024Z,23.45
2023-07-23T22:37:07.074Z,25.33
2023-07-23T22:39:34.134Z,24.20
2023-07-23T22:42:01.122Z,24.50
2023-07-23T22:44:28.387Z,27.05
2023-07-23T22:46:55.610Z,26.17
2023-07-23T22:49:22.547Z,26.35
2023-07-23T22:51:49.463Z,21.55
2023-07-23T22:54:17.673Z,33.85
2023-07-23T22:56:44.918Z,29.55
2023-07-23T22:59:12.080Z,23.90
2023-07-23T23:01:39.177Z,25.58
2023-07-23T23:04:06.320Z,24.27
2023-07-23T23:06:34.445Z,23.33
2023-07-23T23:09:01.766Z,22.63
2023-07-23T23:11:29.235Z,18.90
2023-07-23T23:13:56.162Z,16.98
2023-07-23T23:16:23.224Z,17.30
2023-07-23T23:18:50.223Z,18.92
2023-07-23T23:21:17.196Z,17.42
2023-07-23T23:23:44.266Z,17.13
2023-07-23T23:26:11.315Z,19.67
2023-07-23T23:28:38.377Z,17.27
2023-07-23T23:31:05.963Z,19.08
2023-07-23T23:33:33.134Z,19.00
2023-07-23T23:36:00.500Z,17.17
2023-07-23T23:38:28.005Z,18.83
2023-07-23T23:40:55.762Z,17.27
2023-07-23T23:43:23.370Z,19.25
2023-07-23T23:45:51.075Z,18.00
2023-07-23T23:48:18.390Z,17.63
2023-07-23T23:50:45.642Z,18.88
2023-07-23T23:53:14.501Z,17.10
2023-07-23T23:55:41.550Z,15.20
2023-07-23T23:58:08.777Z,16.60
